sensor_id;sensor_type;location;lat;lon;timestamp;P1;durP1;ratioP1;P2;durP2;ratioP2
21543;SDS011;10933;50.754;11.508;2022-07-23T00:00:02;6.60;;;6.30;;
21543;SDS011;10933;50.754;11.508;2022-07-23T00:02:30;6.47;;;6.07;;
21543;SDS011;10933;50.754;11.508;2022-07-23T00:04:56;6.40;;;5.90;;
21543;SDS011;10933;50.754;11.508;2022-07-23T00:07:22;6.47;;;6.07;;
21543;SDS011;10933;50.754;11.508;2022-07-23T00:09:47;5.57;;;5.28;;
21543;SDS011;10933;50.754;11.508;2022-07-23T00:12:13;6.22;;;5.93;;
21543;SDS011;10933;50.754;11.508;2022-07-23T00:14:39;6.18;;;5.88;;
21543;SDS011;10933;50.754;11.508;2022-07-23T00:17:05;6.32;;;5.82;;
21543;SDS011;10933;50.754;11.508;2022-07-23T00:19:31;6.22;;;5.82;;
21543;SDS011;10933;50.754;11.508;2022-07-23T00:21:56;6.82;;;6.53;;
21543;SDS011;10933;50.754;11.508;2022-07-23T00:24:22;6.90;;;6.18;;
21543;SDS011;10933;50.754;11.508;2022-07-23T00:26:48;6.53;;;6.13;;
21543;SDS011;10933;50.754;11.508;2022-07-23T00:29:14;6.07;;;5.72;;
21543;SDS011;10933;50.754;11.508;2022-07-23T00:31:39;7.10;;;6.80;;
21543;SDS011;10933;50.754;11.508;2022-07-23T00:34:06;6.82;;;6.53;;
21543;SDS011;10933;50.754;11.508;2022-07-23T00:36:32;6.30;;;6.00;;
21543;SDS011;10933;50.754;11.508;2022-07-23T00:38:58;7.30;;;6.80;;
21543;SDS011;10933;50.754;11.508;2022-07-23T00:41:23;6.97;;;6.47;;
21543;SDS011;10933;50.754;11.508;2022-07-23T00:43:49;6.50;;;6.20;;
21543;SDS011;10933;50.754;11.508;2022-07-23T00:46:21;6.82;;;6.53;;
21543;SDS011;10933;50.754;11.508;2022-07-23T00:48:47;6.97;;;6.57;;
21543;SDS011;10933;50.754;11.508;2022-07-23T00:51:17;6.97;;;6.40;;
21543;SDS011;10933;50.754;11.508;2022-07-23T00:53:43;6.80;;;6.40;;
21543;SDS011;10933;50.754;11.508;2022-07-23T00:56:10;6.85;;;6.35;;
21543;SDS011;10933;50.754;11.508;2022-07-23T00:58:37;7.03;;;6.47;;
21543;SDS011;10933;50.754;11.508;2022-07-23T01:01:07;6.30;;;6.00;;
21543;SDS011;10933;50.754;11.508;2022-07-23T01:03:34;7.40;;;7.10;;
21543;SDS011;10933;50.754;11.508;2022-07-23T01:06:00;6.55;;;6.20;;
21543;SDS011;10933;50.754;11.508;2022-07-23T01:08:25;7.10;;;6.50;;
21543;SDS011;10933;50.754;11.508;2022-07-23T01:10:51;6.28;;;5.97;;
21543;SDS011;10933;50.754;11.508;2022-07-23T01:13:17;7.07;;;6.53;;
21543;SDS011;10933;50.754;11.508;2022-07-23T01:15:43;6.38;;;5.95;;
21543;SDS011;10933;50.754;11.508;2022-07-23T01:18:09;7.18;;;6.20;;
21543;SDS011;10933;50.754;11.508;2022-07-23T01:20:36;7.20;;;6.72;;
21543;SDS011;10933;50.754;11.508;2022-07-23T01:23:02;7.57;;;6.93;;
21543;SDS011;10933;50.754;11.508;2022-07-23T01:25:27;7.07;;;6.53;;
21543;SDS011;10933;50.754;11.508;2022-07-23T01:27:53;6.57;;;6.28;;
21543;SDS011;10933;50.754;11.508;2022-07-23T01:30:19;6.68;;;6.20;;
21543;SDS011;10933;50.754;11.508;2022-07-23T01:32:45;6.22;;;5.93;;
21543;SDS011;10933;50.754;11.508;2022-07-23T01:35:11;6.32;;;6.03;;
21543;SDS011;10933;50.754;11.508;2022-07-23T01:37:37;7.35;;;6.90;;
21543;SDS011;10933;50.754;11.508;2022-07-23T01:40:04;7.32;;;6.93;;
21543;SDS011;10933;50.754;11.508;2022-07-23T01:42:31;6.72;;;6.25;;
21543;SDS011;10933;50.754;11.508;2022-07-23T01:44:57;6.68;;;6.28;;
21543;SDS011;10933;50.754;11.508;2022-07-23T01:47:22;6.95;;;6.55;;
21543;SDS011;10933;50.754;11.508;2022-07-23T01:49:48;9.02;;;7.20;;
21543;SDS011;10933;50.754;11.508;2022-07-23T01:52:14;8.02;;;6.72;;
21543;SDS011;10933;50.754;11.508;2022-07-23T01:54:41;7.15;;;6.72;;
21543;SDS011;10933;50.754;11.508;2022-07-23T01:57:07;6.75;;;6.25;;
21543;SDS011;10933;50.754;11.508;2022-07-23T01:59:33;7.20;;;6.63;;
21543;SDS011;10933;50.754;11.508;2022-07-23T02:02:00;6.95;;;6.32;;
21543;SDS011;10933;50.754;11.508;2022-07-23T02:04:26;6.78;;;6.28;;
21543;SDS011;10933;50.754;11.508;2022-07-23T02:06:52;7.38;;;6.97;;
21543;SDS011;10933;50.754;11.508;2022-07-23T02:09:18;7.40;;;6.90;;
21543;SDS011;10933;50.754;11.508;2022-07-23T02:11:44;7.63;;;7.22;;
21543;SDS011;10933;50.754;11.508;2022-07-23T02:14:10;6.60;;;6.20;;
21543;SDS011;10933;50.754;11.508;2022-07-23T02:16:36;7.20;;;6.90;;
21543;SDS011;10933;50.754;11.508;2022-07-23T02:19:02;7.30;;;7.00;;
21543;SDS011;10933;50.754;11.508;2022-07-23T02:21:29;7.82;;;7.22;;
21543;SDS011;10933;50.754;11.508;2022-07-23T02:23:55;7.93;;;7.43;;
21543;SDS011;10933;50.754;11.508;2022-07-23T02:26:21;7.95;;;7.45;;
21543;SDS011;10933;50.754;11.508;2022-07-23T02:28:46;6.95;;;6.55;;
21543;SDS011;10933;50.754;11.508;2022-07-23T02:31:12;7.10;;;6.65;;
21543;SDS011;10933;50.754;11.508;2022-07-23T02:33:38;7.15;;;6.85;;
21543;SDS011;10933;50.754;11.508;2022-07-23T02:36:03;7.65;;;7.05;;
21543;SDS011;10933;50.754;11.508;2022-07-23T02:38:30;7.93;;;7.43;;
21543;SDS011;10933;50.754;11.508;2022-07-23T02:40:55;8.57;;;7.60;;
21543;SDS011;10933;50.754;11.508;2022-07-23T02:43:21;7.25;;;6.85;;
21543;SDS011;10933;50.754;11.508;2022-07-23T02:45:47;8.02;;;7.28;;
21543;SDS011;10933;50.754;11.508;2022-07-23T02:48:13;8.43;;;7.90;;
21543;SDS011;10933;50.754;11.508;2022-07-23T02:50:39;7.65;;;7.20;;
21543;SDS011;10933;50.754;11.508;2022-07-23T02:53:04;7.47;;;6.88;;
21543;SDS011;10933;50.754;11.508;2022-07-23T02:55:30;7.65;;;7.25;;
21543;SDS011;10933;50.754;11.508;2022-07-23T02:57:56;8.43;;;7.70;;
21543;SDS011;10933;50.754;11.508;2022-07-23T03:00:22;7.90;;;7.40;;
21543;SDS011;10933;50.754;11.508;2022-07-23T03:02:48;8.38;;;7.68;;
21543;SDS011;10933;50.754;11.508;2022-07-23T03:05:14;9.45;;;7.57;;
21543;SDS011;10933;50.754;11.508;2022-07-23T03:07:40;7.97;;;7.28;;
21543;SDS011;10933;50.754;11.508;2022-07-23T03:10:06;11.23;;;7.55;;
21543;SDS011;10933;50.754;11.508;2022-07-23T03:12:32;7.72;;;7.32;;
21543;SDS011;10933;50.754;11.508;2022-07-23T03:14:57;8.00;;;7.43;;
21543;SDS011;10933;50.754;11.508;2022-07-23T03:17:23;7.55;;;7.15;;
21543;SDS011;10933;50.754;11.508;2022-07-23T03:19:49;7.80;;;7.25;;
21543;SDS011;10933;50.754;11.508;2022-07-23T03:22:15;7.65;;;7.25;;
21543;SDS011;10933;50.754;11.508;2022-07-23T03:24:41;8.50;;;7.65;;
21543;SDS011;10933;50.754;11.508;2022-07-23T03:27:18;8.55;;;8.05;;
21543;SDS011;10933;50.754;11.508;2022-07-23T03:29:49;8.98;;;8.48;;
21543;SDS011;10933;50.754;11.508;2022-07-23T03:32:17;9.40;;;8.80;;
21543;SDS011;10933;50.754;11.508;2022-07-23T03:34:43;9.07;;;8.50;;
21543;SDS011;10933;50.754;11.508;2022-07-23T03:37:09;10.07;;;9.55;;
21543;SDS011;10933;50.754;11.508;2022-07-23T03:39:34;10.18;;;9.68;;
21543;SDS011;10933;50.754;11.508;2022-07-23T03:42:00;11.48;;;10.43;;
21543;SDS011;10933;50.754;11.508;2022-07-23T03:44:26;10.65;;;10.15;;
21543;SDS011;10933;50.754;11.508;2022-07-23T03:46:52;11.27;;;10.48;;
21543;SDS011;10933;50.754;11.508;2022-07-23T03:49:18;11.18;;;10.27;;
21543;SDS011;10933;50.754;11.508;2022-07-23T03:51:44;11.95;;;11.00;;
21543;SDS011;10933;50.754;11.508;2022-07-23T03:54:10;11.57;;;10.60;;
21543;SDS011;10933;50.754;11.508;2022-07-23T03:56:36;12.90;;;12.02;;
21543;SDS011;10933;50.754;11.508;2022-07-23T03:59:01;11.82;;;11.13;;
21543;SDS011;10933;50.754;11.508;2022-07-23T04:01:27;11.05;;;10.38;;
21543;SDS011;10933;50.754;11.508;2022-07-23T04:03:53;11.32;;;10.43;;
21543;SDS011;10933;50.754;11.508;2022-07-23T04:06:19;12.20;;;11.20;;
21543;SDS011;10933;50.754;11.508;2022-07-23T04:08:45;11.80;;;11.10;;
21543;SDS011;10933;50.754;11.508;2022-07-23T04:11:10;10.70;;;10.10;;
21543;SDS011;10933;50.754;11.508;2022-07-23T04:13:36;11.05;;;10.35;;
21543;SDS011;10933;50.754;11.508;2022-07-23T04:16:02;13.45;;;11.95;;
21543;SDS011;10933;50.754;11.508;2022-07-23T04:18:28;13.35;;;12.32;;
21543;SDS011;10933;50.754;11.508;2022-07-23T04:20:54;12.00;;;11.30;;
21543;SDS011;10933;50.754;11.508;2022-07-23T04:23:20;11.07;;;10.48;;
21543;SDS011;10933;50.754;11.508;2022-07-23T04:25:46;10.68;;;10.10;;
21543;SDS011;10933;50.754;11.508;2022-07-23T04:28:12;11.32;;;10.82;;
21543;SDS011;10933;50.754;11.508;2022-07-23T04:30:38;11.20;;;10.60;;
21543;SDS011;10933;50.754;11.508;2022-07-23T04:33:04;11.45;;;10.82;;
21543;SDS011;10933;50.754;11.508;2022-07-23T04:35:31;11.18;;;10.50;;
21543;SDS011;10933;50.754;11.508;2022-07-23T04:37:59;10.60;;;10.10;;
21543;SDS011;10933;50.754;11.508;2022-07-23T04:40:25;11.23;;;10.63;;
21543;SDS011;10933;50.754;11.508;2022-07-23T04:42:51;10.80;;;10.20;;
21543;SDS011;10933;50.754;11.508;2022-07-23T04:45:17;11.20;;;10.45;;
21543;SDS011;10933;50.754;11.508;2022-07-23T04:47:43;10.18;;;9.68;;
21543;SDS011;10933;50.754;11.508;2022-07-23T04:50:09;11.00;;;10.40;;
21543;SDS011;10933;50.754;11.508;2022-07-23T04:52:35;11.05;;;10.25;;
21543;SDS011;10933;50.754;11.508;2022-07-23T04:55:00;10.50;;;9.90;;
21543;SDS011;10933;50.754;11.508;2022-07-23T04:57:27;9.45;;;8.88;;
21543;SDS011;10933;50.754;11.508;2022-07-23T04:59:52;8.90;;;8.38;;
21543;SDS011;10933;50.754;11.508;2022-07-23T05:02:18;9.38;;;8.77;;
21543;SDS011;10933;50.754;11.508;2022-07-23T05:04:44;9.63;;;8.85;;
21543;SDS011;10933;50.754;11.508;2022-07-23T05:07:10;9.90;;;9.05;;
21543;SDS011;10933;50.754;11.508;2022-07-23T05:09:36;9.13;;;8.63;;
21543;SDS011;10933;50.754;11.508;2022-07-23T05:12:02;9.48;;;8.88;;
21543;SDS011;10933;50.754;11.508;2022-07-23T05:14:28;8.80;;;8.20;;
21543;SDS011;10933;50.754;11.508;2022-07-23T05:16:54;9.57;;;8.75;;
21543;SDS011;10933;50.754;11.508;2022-07-23T05:19:20;8.55;;;7.88;;
21543;SDS011;10933;50.754;11.508;2022-07-23T05:21:45;9.65;;;8.75;;
21543;SDS011;10933;50.754;11.508;2022-07-23T05:24:11;9.10;;;8.60;;
21543;SDS011;10933;50.754;11.508;2022-07-23T05:26:37;8.90;;;8.40;;
21543;SDS011;10933;50.754;11.508;2022-07-23T05:29:02;8.75;;;8.25;;
21543;SDS011;10933;50.754;11.508;2022-07-23T05:31:28;8.50;;;8.00;;
21543;SDS011;10933;50.754;11.508;2022-07-23T05:33:54;8.48;;;7.97;;
21543;SDS011;10933;50.754;11.508;2022-07-23T05:36:20;8.63;;;8.15;;
21543;SDS011;10933;50.754;11.508;2022-07-23T05:38:46;8.13;;;7.72;;
21543;SDS011;10933;50.754;11.508;2022-07-23T05:41:11;8.38;;;7.85;;
21543;SDS011;10933;50.754;11.508;2022-07-23T05:43:37;7.97;;;7.38;;
21543;SDS011;10933;50.754;11.508;2022-07-23T05:46:03;7.70;;;7.20;;
21543;SDS011;10933;50.754;11.508;2022-07-23T05:48:29;8.23;;;7.82;;
21543;SDS011;10933;50.754;11.508;2022-07-23T05:50:54;7.78;;;7.10;;
21543;SDS011;10933;50.754;11.508;2022-07-23T05:53:20;8.05;;;7.20;;
21543;SDS011;10933;50.754;11.508;2022-07-23T05:55:46;8.15;;;7.75;;
21543;SDS011;10933;50.754;11.508;2022-07-23T05:58:12;8.02;;;7.45;;
21543;SDS011;10933;50.754;11.508;2022-07-23T06:00:37;15.50;;;8.55;;
21543;SDS011;10933;50.754;11.508;2022-07-23T06:03:03;8.25;;;7.35;;
21543;SDS011;10933;50.754;11.508;2022-07-23T06:05:29;8.07;;;7.43;;
21543;SDS011;10933;50.754;11.508;2022-07-23T06:07:55;9.75;;;8.43;;
21543;SDS011;10933;50.754;11.508;2022-07-23T06:10:20;8.93;;;7.85;;
21543;SDS011;10933;50.754;11.508;2022-07-23T06:12:46;8.30;;;7.50;;
21543;SDS011;10933;50.754;11.508;2022-07-23T06:15:12;6.93;;;6.45;;
21543;SDS011;10933;50.754;11.508;2022-07-23T06:17:39;19.15;;;7.93;;
21543;SDS011;10933;50.754;11.508;2022-07-23T06:20:05;9.50;;;7.10;;
21543;SDS011;10933;50.754;11.508;2022-07-23T06:22:33;7.53;;;7.13;;
21543;SDS011;10933;50.754;11.508;2022-07-23T06:25:00;7.97;;;7.57;;
21543;SDS011;10933;50.754;11.508;2022-07-23T06:27:26;8.15;;;7.43;;
21543;SDS011;10933;50.754;11.508;2022-07-23T06:29:52;7.70;;;7.20;;
21543;SDS011;10933;50.754;11.508;2022-07-23T06:32:18;7.20;;;6.63;;
21543;SDS011;10933;50.754;11.508;2022-07-23T06:34:44;7.22;;;6.78;;
21543;SDS011;10933;50.754;11.508;2022-07-23T06:37:09;7.10;;;6.70;;
21543;SDS011;10933;50.754;11.508;2022-07-23T06:39:35;7.60;;;7.13;;
21543;SDS011;10933;50.754;11.508;2022-07-23T06:42:01;8.02;;;7.35;;
21543;SDS011;10933;50.754;11.508;2022-07-23T06:44:27;7.65;;;7.05;;
21543;SDS011;10933;50.754;11.508;2022-07-23T06:46:52;7.97;;;7.57;;
21543;SDS011;10933;50.754;11.508;2022-07-23T06:49:18;7.20;;;6.80;;
21543;SDS011;10933;50.754;11.508;2022-07-23T06:51:44;7.40;;;6.65;;
21543;SDS011;10933;50.754;11.508;2022-07-23T06:54:10;6.60;;;6.25;;
21543;SDS011;10933;50.754;11.508;2022-07-23T06:56:36;6.97;;;6.47;;
21543;SDS011;10933;50.754;11.508;2022-07-23T06:59:02;7.07;;;6.47;;
21543;SDS011;10933;50.754;11.508;2022-07-23T07:01:28;6.78;;;6.28;;
21543;SDS011;10933;50.754;11.508;2022-07-23T07:03:55;6.22;;;5.70;;
21543;SDS011;10933;50.754;11.508;2022-07-23T07:06:21;6.30;;;6.00;;
21543;SDS011;10933;50.754;11.508;2022-07-23T07:08:46;6.75;;;6.30;;
21543;SDS011;10933;50.754;11.508;2022-07-23T07:11:12;6.25;;;5.80;;
21543;SDS011;10933;50.754;11.508;2022-07-23T07:13:38;6.43;;;5.82;;
21543;SDS011;10933;50.754;11.508;2022-07-23T07:16:04;6.53;;;6.03;;
21543;SDS011;10933;50.754;11.508;2022-07-23T07:18:30;6.75;;;6.35;;
21543;SDS011;10933;50.754;11.508;2022-07-23T07:20:59;6.10;;;5.70;;
21543;SDS011;10933;50.754;11.508;2022-07-23T07:23:24;5.45;;;5.05;;
21543;SDS011;10933;50.754;11.508;2022-07-23T07:25:50;4.95;;;4.65;;
21543;SDS011;10933;50.754;11.508;2022-07-23T07:28:16;4.93;;;4.68;;
21543;SDS011;10933;50.754;11.508;2022-07-23T07:30:42;4.72;;;4.43;;
21543;SDS011;10933;50.754;11.508;2022-07-23T07:33:07;5.20;;;4.90;;
21543;SDS011;10933;50.754;11.508;2022-07-23T07:35:33;5.15;;;4.85;;
21543;SDS011;10933;50.754;11.508;2022-07-23T07:37:59;6.57;;;4.30;;
21543;SDS011;10933;50.754;11.508;2022-07-23T07:40:26;4.32;;;4.03;;
21543;SDS011;10933;50.754;11.508;2022-07-23T07:42:53;5.30;;;4.50;;
21543;SDS011;10933;50.754;11.508;2022-07-23T07:45:21;5.20;;;4.70;;
21543;SDS011;10933;50.754;11.508;2022-07-23T07:47:49;4.95;;;4.63;;
21543;SDS011;10933;50.754;11.508;2022-07-23T07:50:17;5.15;;;4.70;;
21543;SDS011;10933;50.754;11.508;2022-07-23T07:52:46;4.13;;;3.92;;
21543;SDS011;10933;50.754;11.508;2022-07-23T07:55:12;4.47;;;4.28;;
21543;SDS011;10933;50.754;11.508;2022-07-23T07:57:38;5.03;;;4.68;;
21543;SDS011;10933;50.754;11.508;2022-07-23T08:00:05;4.75;;;4.45;;
21543;SDS011;10933;50.754;11.508;2022-07-23T08:02:47;4.68;;;4.47;;
21543;SDS011;10933;50.754;11.508;2022-07-23T08:05:14;4.80;;;4.50;;
21543;SDS011;10933;50.754;11.508;2022-07-23T08:07:49;5.65;;;5.22;;
21543;SDS011;10933;50.754;11.508;2022-07-23T08:10:15;4.35;;;4.07;;
21543;SDS011;10933;50.754;11.508;2022-07-23T08:12:42;8.02;;;4.65;;
21543;SDS011;10933;50.754;11.508;2022-07-23T08:15:12;8.77;;;4.65;;
21543;SDS011;10933;50.754;11.508;2022-07-23T08:17:40;4.80;;;4.38;;
21543;SDS011;10933;50.754;11.508;2022-07-23T08:20:08;5.22;;;4.90;;
21543;SDS011;10933;50.754;11.508;2022-07-23T08:22:46;5.10;;;4.70;;
21543;SDS011;10933;50.754;11.508;2022-07-23T08:25:22;5.40;;;5.10;;
21543;SDS011;10933;50.754;11.508;2022-07-23T08:27:58;5.55;;;4.82;;
21543;SDS011;10933;50.754;11.508;2022-07-23T08:30:26;5.10;;;4.80;;
21543;SDS011;10933;50.754;11.508;2022-07-23T08:38:05;5.00;;;4.60;;
21543;SDS011;10933;50.754;11.508;2022-07-23T08:40:38;5.97;;;4.55;;
21543;SDS011;10933;50.754;11.508;2022-07-23T08:43:08;4.68;;;4.45;;
21543;SDS011;10933;50.754;11.508;2022-07-23T08:45:46;5.18;;;4.88;;
21543;SDS011;10933;50.754;11.508;2022-07-23T08:48:15;5.40;;;4.93;;
21543;SDS011;10933;50.754;11.508;2022-07-23T08:50:47;4.85;;;4.60;;
21543;SDS011;10933;50.754;11.508;2022-07-23T08:53:20;4.72;;;4.43;;
21543;SDS011;10933;50.754;11.508;2022-07-23T08:55:49;4.97;;;4.68;;
21543;SDS011;10933;50.754;11.508;2022-07-23T08:58:19;7.53;;;5.25;;
21543;SDS011;10933;50.754;11.508;2022-07-23T09:00:47;4.80;;;4.60;;
21543;SDS011;10933;50.754;11.508;2022-07-23T09:03:18;5.22;;;4.90;;
21543;SDS011;10933;50.754;11.508;2022-07-23T09:05:46;5.70;;;5.40;;
21543;SDS011;10933;50.754;11.508;2022-07-23T09:08:15;5.95;;;5.40;;
21543;SDS011;10933;50.754;11.508;2022-07-23T09:10:54;5.50;;;5.20;;
21543;SDS011;10933;50.754;11.508;2022-07-23T09:18:47;5.93;;;5.53;;
21543;SDS011;10933;50.754;11.508;2022-07-23T09:21:22;5.30;;;5.10;;
21543;SDS011;10933;50.754;11.508;2022-07-23T09:24:00;5.38;;;4.90;;
21543;SDS011;10933;50.754;11.508;2022-07-23T09:26:31;5.03;;;4.72;;
21543;SDS011;10933;50.754;11.508;2022-07-23T09:29:23;5.20;;;4.80;;
21543;SDS011;10933;50.754;11.508;2022-07-23T09:32:01;4.90;;;4.70;;
21543;SDS011;10933;50.754;11.508;2022-07-23T09:34:34;5.78;;;5.47;;
21543;SDS011;10933;50.754;11.508;2022-07-23T09:37:11;11.73;;;5.72;;
21543;SDS011;10933;50.754;11.508;2022-07-23T09:39:44;6.28;;;5.97;;
21543;SDS011;10933;50.754;11.508;2022-07-23T09:42:23;10.63;;;6.13;;
21543;SDS011;10933;50.754;11.508;2022-07-23T09:44:52;5.35;;;5.05;;
21543;SDS011;10933;50.754;11.508;2022-07-23T09:47:23;5.30;;;4.88;;
21543;SDS011;10933;50.754;11.508;2022-07-23T09:52:45;5.00;;;4.70;;
21543;SDS011;10933;50.754;11.508;2022-07-23T09:55:13;4.30;;;4.00;;
21543;SDS011;10933;50.754;11.508;2022-07-23T09:57:41;4.40;;;4.20;;
21543;SDS011;10933;50.754;11.508;2022-07-23T10:00:11;4.93;;;4.63;;
21543;SDS011;10933;50.754;11.508;2022-07-23T10:02:38;4.00;;;3.80;;
21543;SDS011;10933;50.754;11.508;2022-07-23T10:05:05;6.20;;;4.07;;
21543;SDS011;10933;50.754;11.508;2022-07-23T10:07:33;4.68;;;4.47;;
21543;SDS011;10933;50.754;11.508;2022-07-23T10:10:02;4.63;;;4.43;;
21543;SDS011;10933;50.754;11.508;2022-07-23T10:12:31;4.75;;;4.45;;
21543;SDS011;10933;50.754;11.508;2022-07-23T10:15:09;4.55;;;4.25;;
21543;SDS011;10933;50.754;11.508;2022-07-23T10:17:36;5.03;;;4.72;;
21543;SDS011;10933;50.754;11.508;2022-07-23T10:20:02;7.10;;;5.13;;
21543;SDS011;10933;50.754;11.508;2022-07-23T10:22:40;4.70;;;4.50;;
21543;SDS011;10933;50.754;11.508;2022-07-23T10:28:41;4.03;;;3.72;;
21543;SDS011;10933;50.754;11.508;2022-07-23T10:39:31;5.05;;;4.85;;
21543;SDS011;10933;50.754;11.508;2022-07-23T10:42:09;5.43;;;5.03;;
21543;SDS011;10933;50.754;11.508;2022-07-23T10:44:42;5.20;;;4.90;;
21543;SDS011;10933;50.754;11.508;2022-07-23T10:47:12;7.45;;;6.05;;
21543;SDS011;10933;50.754;11.508;2022-07-23T10:50:22;7.50;;;6.95;;
21543;SDS011;10933;50.754;11.508;2022-07-23T10:55:47;7.47;;;7.00;;
21543;SDS011;10933;50.754;11.508;2022-07-23T10:58:17;6.57;;;6.07;;
21543;SDS011;10933;50.754;11.508;2022-07-23T11:04:04;6.93;;;6.53;;
21543;SDS011;10933;50.754;11.508;2022-07-23T11:17:31;6.90;;;6.50;;
21543;SDS011;10933;50.754;11.508;2022-07-23T11:22:38;7.15;;;6.65;;
21543;SDS011;10933;50.754;11.508;2022-07-23T11:25:12;7.15;;;6.70;;
21543;SDS011;10933;50.754;11.508;2022-07-23T11:27:55;6.97;;;6.68;;
21543;SDS011;10933;50.754;11.508;2022-07-23T11:30:46;7.00;;;6.70;;
21543;SDS011;10933;50.754;11.508;2022-07-23T11:35:39;7.50;;;6.93;;
21543;SDS011;10933;50.754;11.508;2022-07-23T11:38:15;7.65;;;7.35;;
21543;SDS011;10933;50.754;11.508;2022-07-23T11:40:44;8.23;;;7.80;;
21543;SDS011;10933;50.754;11.508;2022-07-23T11:43:13;8.52;;;8.10;;
21543;SDS011;10933;50.754;11.508;2022-07-23T11:45:44;9.40;;;8.90;;
21543;SDS011;10933;50.754;11.508;2022-07-23T11:48:20;9.80;;;9.20;;
21543;SDS011;10933;50.754;11.508;2022-07-23T11:50:55;9.25;;;8.70;;
21543;SDS011;10933;50.754;11.508;2022-07-23T11:53:30;8.90;;;8.40;;
21543;SDS011;10933;50.754;11.508;2022-07-23T11:56:05;8.75;;;8.25;;
21543;SDS011;10933;50.754;11.508;2022-07-23T11:58:36;8.88;;;8.48;;
21543;SDS011;10933;50.754;11.508;2022-07-23T12:01:04;9.23;;;8.68;;
21543;SDS011;10933;50.754;11.508;2022-07-23T12:03:30;8.63;;;7.85;;
21543;SDS011;10933;50.754;11.508;2022-07-23T12:05:56;8.10;;;7.75;;
21543;SDS011;10933;50.754;11.508;2022-07-23T12:08:24;9.25;;;8.85;;
21543;SDS011;10933;50.754;11.508;2022-07-23T12:10:50;8.55;;;8.25;;
21543;SDS011;10933;50.754;11.508;2022-07-23T12:13:17;10.10;;;9.27;;
21543;SDS011;10933;50.754;11.508;2022-07-23T12:15:50;8.93;;;8.43;;
21543;SDS011;10933;50.754;11.508;2022-07-23T12:18:20;8.15;;;7.75;;
21543;SDS011;10933;50.754;11.508;2022-07-23T12:20:53;8.70;;;8.20;;
21543;SDS011;10933;50.754;11.508;2022-07-23T12:23:22;8.63;;;8.23;;
21543;SDS011;10933;50.754;11.508;2022-07-23T12:25:50;8.77;;;8.38;;
21543;SDS011;10933;50.754;11.508;2022-07-23T12:28:19;11.63;;;8.73;;
21543;SDS011;10933;50.754;11.508;2022-07-23T12:31:02;8.45;;;8.05;;
21543;SDS011;10933;50.754;11.508;2022-07-23T12:33:30;8.38;;;7.75;;
21543;SDS011;10933;50.754;11.508;2022-07-23T12:36:05;7.57;;;7.18;;
21543;SDS011;10933;50.754;11.508;2022-07-23T12:38:49;8.98;;;8.35;;
21543;SDS011;10933;50.754;11.508;2022-07-23T12:41:15;8.55;;;8.05;;
21543;SDS011;10933;50.754;11.508;2022-07-23T12:43:43;8.15;;;7.65;;
21543;SDS011;10933;50.754;11.508;2022-07-23T12:46:20;8.57;;;8.18;;
21543;SDS011;10933;50.754;11.508;2022-07-23T12:51:18;8.25;;;7.80;;
21543;SDS011;10933;50.754;11.508;2022-07-23T12:53:53;7.85;;;7.55;;
21543;SDS011;10933;50.754;11.508;2022-07-23T12:56:31;9.40;;;8.90;;
21543;SDS011;10933;50.754;11.508;2022-07-23T13:01:29;9.18;;;8.70;;
21543;SDS011;10933;50.754;11.508;2022-07-23T13:04:17;9.00;;;8.40;;
21543;SDS011;10933;50.754;11.508;2022-07-23T13:06:49;9.73;;;8.90;;
21543;SDS011;10933;50.754;11.508;2022-07-23T13:09:23;9.32;;;8.73;;
21543;SDS011;10933;50.754;11.508;2022-07-23T13:11:55;8.45;;;7.85;;
21543;SDS011;10933;50.754;11.508;2022-07-23T13:14:22;8.75;;;8.30;;
21543;SDS011;10933;50.754;11.508;2022-07-23T13:16:50;8.68;;;7.97;;
21543;SDS011;10933;50.754;11.508;2022-07-23T13:19:18;7.85;;;7.55;;
21543;SDS011;10933;50.754;11.508;2022-07-23T13:21:47;8.13;;;7.72;;
21543;SDS011;10933;50.754;11.508;2022-07-23T13:24:13;7.53;;;7.13;;
21543;SDS011;10933;50.754;11.508;2022-07-23T13:26:39;7.38;;;6.97;;
21543;SDS011;10933;50.754;11.508;2022-07-23T13:29:06;7.13;;;6.82;;
21543;SDS011;10933;50.754;11.508;2022-07-23T13:31:32;8.32;;;7.10;;
21543;SDS011;10933;50.754;11.508;2022-07-23T13:33:58;7.10;;;6.63;;
21543;SDS011;10933;50.754;11.508;2022-07-23T13:36:24;7.18;;;6.78;;
21543;SDS011;10933;50.754;11.508;2022-07-23T13:38:50;7.25;;;5.70;;
21543;SDS011;10933;50.754;11.508;2022-07-23T13:41:16;5.38;;;5.07;;
21543;SDS011;10933;50.754;11.508;2022-07-23T13:43:43;5.40;;;5.05;;
21543;SDS011;10933;50.754;11.508;2022-07-23T13:46:09;5.35;;;5.05;;
21543;SDS011;10933;50.754;11.508;2022-07-23T13:48:35;5.90;;;5.70;;
21543;SDS011;10933;50.754;11.508;2022-07-23T13:51:00;5.80;;;5.50;;
21543;SDS011;10933;50.754;11.508;2022-07-23T13:53:27;5.57;;;5.18;;
21543;SDS011;10933;50.754;11.508;2022-07-23T13:55:53;5.53;;;5.00;;
21543;SDS011;10933;50.754;11.508;2022-07-23T13:58:19;5.45;;;5.22;;
21543;SDS011;10933;50.754;11.508;2022-07-23T14:00:47;5.72;;;5.13;;
21543;SDS011;10933;50.754;11.508;2022-07-23T14:03:17;5.45;;;5.22;;
21543;SDS011;10933;50.754;11.508;2022-07-23T14:05:43;5.43;;;5.13;;
21543;SDS011;10933;50.754;11.508;2022-07-23T14:08:09;6.03;;;5.72;;
21543;SDS011;10933;50.754;11.508;2022-07-23T14:10:36;5.28;;;5.07;;
21543;SDS011;10933;50.754;11.508;2022-07-23T14:13:02;5.38;;;5.07;;
21543;SDS011;10933;50.754;11.508;2022-07-23T14:15:29;4.80;;;4.60;;
21543;SDS011;10933;50.754;11.508;2022-07-23T14:17:57;4.90;;;4.70;;
21543;SDS011;10933;50.754;11.508;2022-07-23T14:20:23;5.40;;;5.13;;
21543;SDS011;10933;50.754;11.508;2022-07-23T14:22:50;5.90;;;5.60;;
21543;SDS011;10933;50.754;11.508;2022-07-23T14:25:17;5.53;;;5.22;;
21543;SDS011;10933;50.754;11.508;2022-07-23T14:27:44;5.68;;;5.30;;
21543;SDS011;10933;50.754;11.508;2022-07-23T14:30:10;5.57;;;5.10;;
21543;SDS011;10933;50.754;11.508;2022-07-23T14:32:37;6.07;;;5.78;;
21543;SDS011;10933;50.754;11.508;2022-07-23T14:35:03;5.32;;;5.03;;
21543;SDS011;10933;50.754;11.508;2022-07-23T14:37:31;5.65;;;5.40;;
21543;SDS011;10933;50.754;11.508;2022-07-23T14:39:58;5.15;;;4.85;;
21543;SDS011;10933;50.754;11.508;2022-07-23T14:42:24;6.30;;;4.82;;
21543;SDS011;10933;50.754;11.508;2022-07-23T14:44:50;4.82;;;4.57;;
21543;SDS011;10933;50.754;11.508;2022-07-23T14:47:16;5.30;;;5.00;;
21543;SDS011;10933;50.754;11.508;2022-07-23T14:49:43;5.65;;;5.03;;
21543;SDS011;10933;50.754;11.508;2022-07-23T14:52:08;5.25;;;5.00;;
21543;SDS011;10933;50.754;11.508;2022-07-23T14:54:34;5.13;;;4.70;;
21543;SDS011;10933;50.754;11.508;2022-07-23T14:57:00;5.20;;;5.00;;
21543;SDS011;10933;50.754;11.508;2022-07-23T14:59:28;5.22;;;4.82;;
21543;SDS011;10933;50.754;11.508;2022-07-23T15:01:55;5.35;;;4.80;;
21543;SDS011;10933;50.754;11.508;2022-07-23T15:04:22;4.78;;;4.57;;
21543;SDS011;10933;50.754;11.508;2022-07-23T15:06:48;4.63;;;4.32;;
21543;SDS011;10933;50.754;11.508;2022-07-23T15:09:14;4.97;;;4.63;;
21543;SDS011;10933;50.754;11.508;2022-07-23T15:11:40;4.70;;;4.32;;
21543;SDS011;10933;50.754;11.508;2022-07-23T15:14:07;4.93;;;4.63;;
21543;SDS011;10933;50.754;11.508;2022-07-23T15:16:34;4.10;;;3.90;;
21543;SDS011;10933;50.754;11.508;2022-07-23T15:19:00;4.40;;;4.20;;
21543;SDS011;10933;50.754;11.508;2022-07-23T15:21:28;4.63;;;4.43;;
21543;SDS011;10933;50.754;11.508;2022-07-23T15:23:54;4.63;;;4.32;;
21543;SDS011;10933;50.754;11.508;2022-07-23T15:26:23;4.85;;;4.55;;